Time;durP1;ratioP1;P1;durP2;ratioP2;P2;SDS_P1;SDS_P2;PMS_P1;PMS_P2;Temp;Humidity;BMP_temperature;BMP_pressure;BME280_temperature;BME280_humidity;BME280_pressure;Samples;Min_cycle;Max_cycle;Signal;HPM_P1;HPM_P2
2023/09/20 00:00:33;;;;;;;11.13;4.97;;;;;;;;;;4984480;28;20050;-65
2023/09/20 00:02:59;;;;;;;14.15;4.40;;;16.90;99.90;;;;;;5004735;28;20121;-65
2023/09/20 00:05:26;;;;;;;10.57;3.85;;;;;;;;;;4983762;28;20034;-65
2023/09/20 00:07:54;;;;;;;9.00;4.07;;;;;;;;;;4998792;28;20042;-64
2023/09/20 00:10:21;;;;;;;12.07;4.50;;;;;;;;;;4979590;28;20060;-64
2023/09/20 00:12:46;;;;;;;12.13;4.20;;;16.70;99.90;;;;;;4986404;28;20050;-64
2023/09/20 00:15:12;;;;;;;15.98;5.65;;;16.80;99.90;;;;;;5004236;28;20089;-64
2023/09/20 00:17:38;;;;;;;14.30;5.07;;;16.80;99.90;;;;;;4978685;28;20064;-65
2023/09/20 00:20:12;;;;;;;12.77;4.20;;;;;;;;;;5002115;28;20037;-65
2023/09/20 00:22:42;;;;;;;15.88;5.47;;;16.80;99.90;;;;;;5002110;28;20046;-64
2023/09/20 00:25:13;;;;;;;12.68;3.92;;;16.90;99.90;;;;;;4998009;28;20122;-64
2023/09/20 00:27:39;;;;;;;11.13;3.85;;;17.00;99.90;;;;;;4980235;28;20516;-65
2023/09/20 00:30:10;;;;;;;8.98;3.95;;;16.60;99.90;;;;;;4970638;28;20097;-65
2023/09/20 00:32:36;;;;;;;9.77;4.85;;;16.90;99.90;;;;;;4983963;28;20049;-65
2023/09/20 00:35:02;;;;;;;11.38;4.10;;;16.90;99.90;;;;;;4992651;28;20041;-65
2023/09/20 00:37:30;;;;;;;12.73;3.78;;;17.00;99.90;;;;;;4998736;28;20728;-64
2023/09/20 00:39:55;;;;;;;16.52;4.13;;;;;;;;;;4985130;28;20573;-65
2023/09/20 00:42:21;;;;;;;10.60;4.18;;;;;;;;;;4996769;28;20136;-64
2023/09/20 00:44:47;;;;;;;12.23;4.07;;;17.00;99.90;;;;;;4980436;28;20216;-65
2023/09/20 00:47:14;;;;;;;17.80;4.30;;;;;;;;;;4986666;28;20042;-65
2023/09/20 00:49:41;;;;;;;13.48;4.97;;;17.10;99.90;;;;;;4998752;28;20049;-65
2023/09/20 00:52:06;;;;;;;12.15;4.07;;;;;;;;;;5004064;28;20129;-65
2023/09/20 00:54:33;;;;;;;11.65;3.28;;;17.00;99.90;;;;;;4983087;28;20132;-65
2023/09/20 00:56:59;;;;;;;13.18;3.85;;;;;;;;;;4984771;28;20471;-65
2023/09/20 00:59:25;;;;;;;13.43;3.63;;;17.10;99.90;;;;;;4982642;28;20049;-65
2023/09/20 01:01:52;;;;;;;14.85;4.20;;;;;;;;;;4999295;28;20413;-64
2023/09/20 01:04:18;;;;;;;9.65;3.35;;;17.00;99.90;;;;;;5001504;28;20124;-65
2023/09/20 01:06:46;;;;;;;10.82;3.35;;;;;;;;;;4983218;28;20045;-65
2023/09/20 01:09:13;;;;;;;10.18;3.20;;;;;;;;;;4998261;28;20052;-65
2023/09/20 01:11:40;;;;;;;10.98;3.17;;;17.40;99.90;;;;;;4996428;28;20054;-64
2023/09/20 01:14:06;;;;;;;13.48;4.22;;;;;;;;;;4992073;28;20521;-64
2023/09/20 01:16:33;;;;;;;10.98;4.60;;;;;;;;;;4974581;28;20171;-65
2023/09/20 01:18:58;;;;;;;16.33;3.53;;;17.20;99.90;;;;;;4969659;28;20081;-65
2023/09/20 01:21:24;;;;;;;10.73;4.00;;;;;;;;;;4970964;28;20079;-65
2023/09/20 01:23:51;;;;;;;11.73;3.53;;;17.30;99.90;;;;;;4974391;28;20120;-65
2023/09/20 01:26:17;;;;;;;8.27;3.03;;;;;;;;;;4981736;28;20112;-64
2023/09/20 01:28:43;;;;;;;8.95;3.28;;;;;;;;;;4982928;28;20656;-65
2023/09/20 01:31:09;;;;;;;11.75;3.45;;;;;;;;;;4982091;28;20096;-65
2023/09/20 01:33:35;;;;;;;11.38;2.90;;;17.20;99.90;;;;;;4981806;28;20054;-65
2023/09/20 01:36:05;;;;;;;9.70;3.72;;;;;;;;;;4995692;28;21373;-65
2023/09/20 01:38:30;;;;;;;12.15;4.35;;;17.40;99.90;;;;;;4970059;28;20050;-65
2023/09/20 01:40:57;;;;;;;13.02;2.88;;;;;;;;;;4999761;28;20038;-65
2023/09/20 01:43:24;;;;;;;8.32;3.03;;;17.40;99.90;;;;;;4986088;28;20555;-65
2023/09/20 01:45:49;;;;;;;9.40;3.10;;;17.30;99.90;;;;;;5003161;28;20034;-65
2023/09/20 01:48:15;;;;;;;9.70;3.33;;;17.40;99.90;;;;;;4985208;28;20045;-65
2023/09/20 01:50:41;;;;;;;9.57;3.10;;;;;;;;;;5001816;28;20046;-65
2023/09/20 01:53:11;;;;;;;9.57;3.38;;;;;;;;;;5001706;28;20045;-65
2023/09/20 01:55:38;;;;;;;6.53;3.45;;;17.10;99.90;;;;;;4976115;28;20473;-65
2023/09/20 01:58:06;;;;;;;14.13;3.03;;;17.50;99.90;;;;;;4997305;28;20138;-64
2023/09/20 02:00:40;;;;;;;9.13;3.30;;;;;;;;;;4999491;28;20050;-65
2023/09/20 02:03:13;;;;;;;13.20;3.50;;;17.60;99.90;;;;;;4980721;28;20053;-65
2023/09/20 02:05:40;;;;;;;10.75;3.15;;;17.70;99.90;;;;;;4994699;28;20383;-65
2023/09/20 02:08:08;;;;;;;9.52;3.00;;;17.40;99.90;;;;;;5001101;28;20046;-64
2023/09/20 02:10:34;;;;;;;12.23;2.88;;;;;;;;;;5004112;28;20524;-65
2023/09/20 02:13:00;;;;;;;14.98;3.58;;;17.50;99.90;;;;;;4983892;28;20490;-65
2023/09/20 02:15:28;;;;;;;11.75;3.33;;;17.50;99.90;;;;;;4992325;28;20042;-65
2023/09/20 02:17:54;;;;;;;11.30;2.65;;;17.60;99.90;;;;;;4995288;28;20107;-65
2023/09/20 02:20:23;;;;;;;6.18;2.83;;;17.60;99.90;;;;;;4994479;28;20414;-64
2023/09/20 02:22:53;;;;;;;13.05;2.78;;;17.80;99.90;;;;;;4976712;28;20409;-64
2023/09/20 02:25:20;;;;;;;8.85;3.40;;;17.90;99.90;;;;;;4989723;28;20065;-65
2023/09/20 02:27:47;;;;;;;8.90;2.83;;;17.60;99.90;;;;;;5001685;28;20038;-64
2023/09/20 02:30:19;;;;;;;11.05;2.92;;;17.90;99.90;;;;;;4985309;28;20448;-64
2023/09/20 02:32:46;;;;;;;9.70;3.22;;;17.90;99.90;;;;;;5000740;28;20054;-64
2023/09/20 02:35:12;;;;;;;11.35;2.70;;;;;;;;;;4988093;28;20054;-65
2023/09/20 02:37:43;;;;;;;11.60;2.90;;;17.60;99.90;;;;;;4984364;28;20056;-64
2023/09/20 02:40:11;;;;;;;9.88;3.15;;;17.70;99.90;;;;;;4981257;28;20526;-65
2023/09/20 02:42:54;;;;;;;9.05;2.83;;;17.70;99.90;;;;;;4980026;28;20051;-64
2023/09/20 02:45:23;;;;;;;8.15;2.80;;;17.50;99.90;;;;;;4993685;28;20041;-64
2023/09/20 02:47:49;;;;;;;10.07;2.83;;;;;;;;;;5004217;28;20076;-65
2023/09/20 02:50:19;;;;;;;8.70;2.67;;;17.60;99.90;;;;;;4995697;28;20541;-65
2023/09/20 02:52:46;;;;;;;9.68;3.22;;;17.70;99.90;;;;;;5005878;28;20580;-65
2023/09/20 02:55:13;;;;;;;12.93;4.05;;;17.70;99.90;;;;;;5002369;28;20038;-65
2023/09/20 02:57:44;;;;;;;9.02;3.42;;;17.60;99.90;;;;;;5002975;28;20038;-65
2023/09/20 03:00:16;;;;;;;5.65;2.80;;;17.70;99.90;;;;;;5005242;28;20501;-65
2023/09/20 03:02:44;;;;;;;8.77;2.72;;;17.60;99.90;;;;;;4977383;28;20042;-64
2023/09/20 03:05:11;;;;;;;6.55;2.58;;;17.60;99.90;;;;;;4956364;28;20054;-65
2023/09/20 03:07:37;;;;;;;10.73;3.22;;;17.60;99.90;;;;;;4978403;28;20042;-64
2023/09/20 03:10:05;;;;;;;11.82;3.28;;;;;;;;;;5000002;28;20837;-64
2023/09/20 03:12:33;;;;;;;12.13;3.40;;;17.70;99.90;;;;;;4985880;28;20053;-65
2023/09/20 03:15:04;;;;;;;7.30;2.83;;;;;;;;;;4987517;28;20584;-65
2023/09/20 03:17:31;;;;;;;8.48;3.45;;;17.60;99.90;;;;;;4955020;28;20528;-64
2023/09/20 03:19:56;;;;;;;12.90;3.90;;;17.50;99.90;;;;;;5002656;28;20033;-65
2023/09/20 03:22:22;;;;;;;8.73;3.00;;;17.60;99.90;;;;;;5005574;28;20488;-65
2023/09/20 03:24:48;;;;;;;8.35;3.28;;;;;;;;;;4999852;28;20467;-64
2023/09/20 03:27:15;;;;;;;11.02;3.35;;;;;;;;;;4981359;28;20058;-65
2023/09/20 03:29:42;;;;;;;9.30;3.47;;;17.40;99.90;;;;;;4985446;28;20084;-64
2023/09/20 03:32:09;;;;;;;6.78;2.67;;;;;;;;;;4997392;28;20050;-65
2023/09/20 03:34:35;;;;;;;7.63;3.20;;;;;;;;;;4998227;28;20050;-65
2023/09/20 03:37:01;;;;;;;11.88;3.25;;;17.40;99.90;;;;;;4995783;28;20046;-65
2023/09/20 03:39:27;;;;;;;8.57;3.30;;;;;;;;;;5003566;28;20049;-65
2023/09/20 03:41:52;;;;;;;10.25;3.40;;;17.20;99.90;;;;;;4995825;28;20050;-65
2023/09/20 03:44:19;;;;;;;10.57;3.28;;;17.20;99.90;;;;;;5004581;28;20045;-65
2023/09/20 03:46:45;;;;;;;9.68;2.90;;;17.30;99.90;;;;;;5005752;28;20458;-64
2023/09/20 03:49:10;;;;;;;12.60;3.47;;;;;;;;;;5004001;28;20049;-65
2023/09/20 03:51:36;;;;;;;14.07;3.28;;;17.10;99.90;;;;;;5025672;28;20076;-64
2023/09/20 03:54:03;;;;;;;9.63;4.00;;;17.10;99.90;;;;;;5019379;28;20042;-65
2023/09/20 03:56:28;;;;;;;16.33;3.50;;;;;;;;;;5007541;28;20060;-65
2023/09/20 03:58:55;;;;;;;8.95;2.88;;;;;;;;;;4997019;28;20045;-65
2023/09/20 04:01:22;;;;;;;11.50;3.83;;;;;;;;;;5000199;28;20042;-64
2023/09/20 04:03:48;;;;;;;11.48;3.00;;;;;;;;;;5001656;28;20052;-65
2023/09/20 04:06:15;;;;;;;9.02;2.80;;;16.80;99.90;;;;;;5023391;28;20033;-65
2023/09/20 04:08:41;;;;;;;7.65;2.95;;;;;;;;;;5024196;28;20110;-65
2023/09/20 04:11:07;;;;;;;6.75;3.15;;;16.70;99.90;;;;;;4995873;28;20041;-64
2023/09/20 04:13:33;;;;;;;10.88;3.35;;;;;;;;;;5025594;28;20102;-64
2023/09/20 04:15:58;;;;;;;12.15;3.70;;;16.70;99.90;;;;;;5005504;28;20045;-64
2023/09/20 04:18:26;;;;;;;9.52;4.07;;;;;;;;;;4991492;28;20115;-64
2023/09/20 04:20:51;;;;;;;8.48;3.20;;;16.60;99.90;;;;;;5000497;28;20063;-65
2023/09/20 04:23:17;;;;;;;12.80;3.35;;;16.60;99.90;;;;;;5020746;28;20555;-64
2023/09/20 04:25:43;;;;;;;11.27;2.95;;;;;;;;;;5001141;28;20049;-65
2023/09/20 04:28:09;;;;;;;12.40;4.00;;;16.50;99.90;;;;;;4996929;28;20052;-65
2023/09/20 04:30:38;;;;;;;13.27;3.25;;;16.70;99.90;;;;;;5001880;28;20580;-64
2023/09/20 04:33:06;;;;;;;12.40;3.15;;;16.50;99.90;;;;;;4981455;28;20042;-64
2023/09/20 04:35:34;;;;;;;11.05;3.50;;;16.40;99.90;;;;;;5019809;28;20044;-65
2023/09/20 04:38:00;;;;;;;13.88;3.47;;;;;;;;;;5005510;28;20121;-65
2023/09/20 04:40:26;;;;;;;11.18;3.85;;;;;;;;;;5013331;28;20054;-65
2023/09/20 04:42:52;;;;;;;15.82;4.15;;;16.20;99.90;;;;;;5005671;28;20049;-64
2023/09/20 04:45:19;;;;;;;7.75;3.25;;;;;;;;;;5000958;28;20045;-64
2023/09/20 04:47:45;;;;;;;9.38;3.30;;;;;;;;;;4995204;28;20100;-64
2023/09/20 04:50:13;;;;;;;10.25;3.28;;;;;;;;;;4998940;28;20053;-64
2023/09/20 04:52:39;;;;;;;8.27;3.08;;;;;;;;;;5014717;28;20046;-65
2023/09/20 04:55:05;;;;;;;9.38;2.70;;;16.10;99.90;;;;;;4999932;28;20037;-64
2023/09/20 04:57:31;;;;;;;12.20;2.75;;;;;;;;;;4995053;28;20453;-64
2023/09/20 04:59:57;;;;;;;14.73;3.20;;;16.10;99.90;;;;;;5018121;28;20046;-64
2023/09/20 05:02:23;;;;;;;6.78;3.20;;;16.30;99.90;;;;;;5018419;28;20468;-64
2023/09/20 05:04:48;;;;;;;8.90;2.88;;;;;;;;;;5022927;28;20507;-64
2023/09/20 05:07:14;;;;;;;9.55;3.83;;;16.20;99.90;;;;;;4997776;28;20141;-65
2023/09/20 05:09:40;;;;;;;9.55;3.33;;;;;;;;;;4992568;28;20050;-64
2023/09/20 05:12:09;;;;;;;11.43;3.63;;;16.10;99.90;;;;;;5009814;28;20385;-65
2023/09/20 05:14:34;;;;;;;7.50;2.90;;;16.10;99.90;;;;;;4990048;28;20802;-65
2023/09/20 05:17:01;;;;;;;8.40;2.80;;;;;;;;;;4991702;28;20184;-65
2023/09/20 05:19:27;;;;;;;10.82;3.30;;;;;;;;;;5011129;28;20045;-64
2023/09/20 05:21:52;;;;;;;13.27;4.25;;;16.20;99.90;;;;;;5015156;28;20048;-64
2023/09/20 05:24:18;;;;;;;12.65;2.88;;;16.10;99.90;;;;;;5003461;28;20037;-65
2023/09/20 05:26:43;;;;;;;5.53;2.58;;;16.30;99.90;;;;;;5017879;28;20034;-64
2023/09/20 05:29:10;;;;;;;9.45;2.67;;;;;;;;;;5019251;28;20171;-64
2023/09/20 05:31:36;;;;;;;9.38;3.85;;;;;;;;;;5014274;28;20129;-64
2023/09/20 05:34:02;;;;;;;8.55;2.55;;;;;;;;;;5008993;28;20168;-65
2023/09/20 05:36:28;;;;;;;13.00;2.75;;;16.40;99.90;;;;;;4999449;28;20068;-64
2023/09/20 05:38:55;;;;;;;6.40;2.70;;;;;;;;;;5017081;28;20129;-64
2023/09/20 05:41:21;;;;;;;10.07;3.67;;;16.30;99.90;;;;;;5014213;28;20453;-65
2023/09/20 05:43:48;;;;;;;7.88;3.15;;;;;;;;;;4980942;28;20054;-64
2023/09/20 05:46:14;;;;;;;6.80;2.70;;;16.50;99.90;;;;;;4980042;28;20099;-64
2023/09/20 05:48:41;;;;;;;10.18;3.35;;;16.50;99.90;;;;;;4994282;28;20117;-64
2023/09/20 05:51:08;;;;;;;11.75;2.83;;;;;;;;;;4996648;28;20042;-64
2023/09/20 05:53:34;;;;;;;9.27;3.13;;;;;;;;;;4982595;28;20049;-65
2023/09/20 05:56:11;;;;;;;7.50;2.95;;;16.50;99.90;;;;;;4975989;28;20046;-64
2023/09/20 05:58:36;;;;;;;9.05;3.95;;;;;;;;;;4980729;28;20724;-64
2023/09/20 06:01:04;;;;;;;8.02;2.88;;;16.80;99.90;;;;;;4980271;28;20066;-65
2023/09/20 06:03:30;;;;;;;6.57;2.65;;;16.70;99.90;;;;;;4987462;28;20458;-65
2023/09/20 06:05:56;;;;;;;8.20;2.50;;;;;;;;;;5001791;28;20133;-64
2023/09/20 06:08:22;;;;;;;8.77;2.60;;;;;;;;;;4986733;28;20129;-64
2023/09/20 06:10:48;;;;;;;6.80;2.55;;;;;;;;;;4998836;28;20513;-65
2023/09/20 06:13:14;;;;;;;10.25;2.30;;;16.80;99.90;;;;;;4996786;28;20034;-64
2023/09/20 06:15:40;;;;;;;5.60;2.20;;;;;;;;;;4981589;28;20049;-65
2023/09/20 06:18:08;;;;;;;10.93;2.65;;;16.80;99.90;;;;;;4994311;28;20827;-65
2023/09/20 06:20:36;;;;;;;11.82;3.25;;;16.80;99.90;;;;;;4971411;28;20078;-65
2023/09/20 06:23:03;;;;;;;6.45;2.53;;;;;;;;;;4967283;28;20089;-64
2023/09/20 06:25:29;;;;;;;11.27;2.58;;;;;;;;;;4983390;28;20072;-64
2023/09/20 06:27:55;;;;;;;9.23;2.25;;;;;;;;;;4970206;28;20744;-64
2023/09/20 06:30:21;;;;;;;6.82;2.22;;;16.90;99.90;;;;;;4983089;28;20117;-62
2023/09/20 06:32:47;;;;;;;8.52;2.58;;;16.90;99.90;;;;;;4970409;28;20042;-63
2023/09/20 06:35:15;;;;;;;5.38;2.30;;;;;;;;;;4973631;28;20129;-63
2023/09/20 06:37:45;;;;;;;10.77;2.17;;;16.90;99.90;;;;;;4975590;28;20054;-63
2023/09/20 06:40:22;;;;;;;7.45;2.90;;;16.90;99.90;;;;;;4993222;28;20052;-63
2023/09/20 06:42:51;;;;;;;7.63;2.25;;;17.10;99.90;;;;;;4994275;28;20289;-63
2023/09/20 06:45:19;;;;;;;5.85;2.10;;;16.90;99.90;;;;;;5004538;28;20387;-63
2023/09/20 06:47:45;;;;;;;6.03;2.22;;;16.70;99.90;;;;;;4980719;28;20123;-63
2023/09/20 06:50:13;;;;;;;9.57;3.28;;;;;;;;;;5000478;28;20097;-63
2023/09/20 06:52:39;;;;;;;9.52;3.03;;;;;;;;;;5001590;28;20053;-63
2023/09/20 06:55:05;;;;;;;10.43;2.40;;;16.90;99.90;;;;;;5003225;28;20056;-63
2023/09/20 06:57:31;;;;;;;8.88;3.45;;;;;;;;;;4993957;28;20038;-63
2023/09/20 06:59:57;;;;;;;8.65;2.40;;;;;;;;;;4996626;28;20555;-63
2023/09/20 07:02:25;;;;;;;5.88;2.25;;;17.00;99.90;;;;;;4997310;28;20042;-64
2023/09/20 07:04:51;;;;;;;8.63;1.90;;;17.10;99.90;;;;;;4985588;28;20038;-63
2023/09/20 07:07:18;;;;;;;8.27;2.30;;;;;;;;;;4979535;28;20046;-64
2023/09/20 07:09:44;;;;;;;4.97;2.30;;;;;;;;;;4982697;28;20168;-63
2023/09/20 07:12:09;;;;;;;6.75;2.30;;;17.10;99.90;;;;;;4993963;28;20121;-64
2023/09/20 07:14:35;;;;;;;7.93;2.55;;;17.20;99.90;;;;;;4974094;28;20078;-64
2023/09/20 07:17:02;;;;;;;5.10;2.22;;;;;;;;;;4979962;28;20115;-64
2023/09/20 07:19:29;;;;;;;8.50;2.28;;;;;;;;;;4977933;28;20057;-65
2023/09/20 07:21:56;;;;;;;7.45;2.50;;;17.40;99.90;;;;;;4980333;28;20084;-64
2023/09/20 07:24:24;;;;;;;9.30;2.97;;;17.30;99.90;;;;;;4997816;28;20034;-63
2023/09/20 07:26:51;;;;;;;10.75;2.97;;;17.40;99.90;;;;;;4979271;28;20076;-64
2023/09/20 07:29:17;;;;;;;6.28;3.03;;;17.50;99.90;;;;;;4996808;28;20416;-64
2023/09/20 07:31:45;;;;;;;9.70;2.70;;;;;;;;;;4994441;28;20038;-63
2023/09/20 07:34:12;;;;;;;9.05;2.60;;;17.50;99.90;;;;;;4996898;28;20034;-63
2023/09/20 07:36:40;;;;;;;5.78;3.20;;;17.50;99.90;;;;;;4986405;28;20104;-63
2023/09/20 07:39:12;;;;;;;7.90;2.72;;;17.70;99.90;;;;;;4997867;28;20042;-63
2023/09/20 07:41:44;;;;;;;7.15;2.97;;;17.30;99.90;;;;;;4987676;28;20058;-63
2023/09/20 07:44:11;;;;;;;10.25;3.20;;;;;;;;;;4997528;28;20469;-64
2023/09/20 07:46:39;;;;;;;9.70;2.72;;;;;;;;;;4992506;28;20124;-64
2023/09/20 07:49:09;;;;;;;5.75;2.67;;;;;;;;;;4998891;28;20052;-63
2023/09/20 07:51:36;;;;;;;12.32;3.45;;;17.40;99.90;;;;;;4992279;28;20049;-64
2023/09/20 07:54:03;;;;;;;8.85;2.75;;;17.50;99.90;;;;;;4980213;28;20050;-64
2023/09/20 07:56:29;;;;;;;7.15;2.97;;;17.40;99.90;;;;;;4993803;28;20042;-63
2023/09/20 07:58:55;;;;;;;8.40;3.28;;;17.70;99.90;;;;;;4999538;28;20490;-64
2023/09/20 08:01:21;;;;;;;7.68;2.55;;;17.50;99.90;;;;;;4993339;28;20038;-64
2023/09/20 08:03:51;;;;;;;9.48;2.95;;;17.30;99.90;;;;;;4993471;28;20070;-64
2023/09/20 08:06:17;;;;;;;7.53;3.22;;;17.40;99.90;;;;;;4997075;28;20030;-64
2023/09/20 08:08:43;;;;;;;8.40;2.80;;;17.40;99.90;;;;;;4987066;28;20060;-63
2023/09/20 08:11:09;;;;;;;7.55;2.95;;;;;;;;;;4996955;28;20042;-63
2023/09/20 08:13:35;;;;;;;7.05;2.70;;;;;;;;;;5004016;28;20545;-64
2023/09/20 08:16:04;;;;;;;11.02;2.90;;;17.30;99.90;;;;;;4999316;28;20129;-63
2023/09/20 08:21:14;;;;;;;7.40;2.83;;;;;;;;;;4984929;28;20142;-63
2023/09/20 08:59:49;;;;;;;5.38;3.30;;;17.70;99.90;;;;;;4969718;28;20057;-63
2023/09/20 09:02:16;;;;;;;6.78;3.05;;;17.70;99.90;;;;;;4994165;28;20077;-64
2023/09/20 09:04:53;;;;;;;7.75;3.55;;;17.80;99.90;;;;;;4990817;28;20050;-64
2023/09/20 09:07:23;;;;;;;8.60;4.07;;;17.50;99.90;;;;;;4973003;28;20327;-63
2023/09/20 09:09:49;;;;;;;7.45;3.55;;;;;;;;;;4986915;28;20064;-64
2023/09/20 09:12:15;;;;;;;12.00;3.47;;;17.80;99.90;;;;;;4983758;28;20647;-64
2023/09/20 09:14:42;;;;;;;6.75;3.63;;;17.70;99.90;;;;;;4989303;28;20101;-63
2023/09/20 09:17:08;;;;;;;5.95;3.85;;;17.70;99.90;;;;;;4993558;28;20052;-63
2023/09/20 09:19:35;;;;;;;6.60;3.90;;;17.60;99.90;;;;;;4973679;28;20054;-64
2023/09/20 09:22:02;;;;;;;6.05;4.18;;;;;;;;;;5001474;28;20049;-64
2023/09/20 09:24:28;;;;;;;7.18;3.90;;;17.70;99.90;;;;;;4986901;28;20557;-63
2023/09/20 09:27:05;;;;;;;8.10;4.53;;;17.70;99.90;;;;;;4994726;28;20113;-63
2023/09/20 09:29:31;;;;;;;8.48;3.80;;;;;;;;;;4970259;28;20050;-63
2023/09/20 09:31:56;;;;;;;8.88;4.25;;;;;;;;;;4970621;28;20054;-63
2023/09/20 09:34:22;;;;;;;9.32;4.38;;;17.70;99.90;;;;;;4994792;28;20549;-64
2023/09/20 09:36:48;;;;;;;8.75;4.13;;;;;;;;;;4987542;28;20064;-64
2023/09/20 09:39:14;;;;;;;11.70;4.35;;;;;;;;;;4978318;28;20047;-63
2023/09/20 09:41:44;;;;;;;8.75;4.47;;;17.80;99.90;;;;;;4988740;28;20065;-63
2023/09/20 09:44:11;;;;;;;7.03;3.70;;;17.80;99.90;;;;;;4994611;28;20046;-64
2023/09/20 09:46:40;;;;;;;8.60;4.40;;;17.80;99.90;;;;;;4998646;28;20685;-63
2023/09/20 09:49:12;;;;;;;9.35;4.20;;;17.90;99.90;;;;;;4993496;28;20042;-64
2023/09/20 09:51:45;;;;;;;7.72;3.88;;;17.90;99.90;;;;;;4997913;28;20053;-63
2023/09/20 09:54:12;;;;;;;7.03;3.85;;;17.90;99.90;;;;;;4992055;28;20145;-63
2023/09/20 09:56:38;;;;;;;8.52;3.67;;;17.90;99.90;;;;;;4988060;28;20129;-64
2023/09/20 09:59:05;;;;;;;4.10;3.58;;;17.90;99.90;;;;;;4998216;28;20649;-63
2023/09/20 10:01:36;;;;;;;11.13;4.20;;;17.80;99.90;;;;;;4999893;28;20056;-63
2023/09/20 10:04:10;;;;;;;8.13;3.85;;;17.80;99.90;;;;;;4979106;28;20746;-64
2023/09/20 10:07:02;;;;;;;4.75;3.33;;;18.00;99.90;;;;;;4995547;28;20037;-64
2023/09/20 10:09:35;;;;;;;8.45;3.53;;;18.30;99.90;;;;;;4961455;28;20150;-63
2023/09/20 10:12:01;;;;;;;7.55;3.47;;;18.10;99.90;;;;;;4990964;28;20560;-64
2023/09/20 10:14:28;;;;;;;4.80;3.10;;;;;;;;;;4997621;28;20092;-64
2023/09/20 10:16:54;;;;;;;11.90;3.63;;;18.10;99.90;;;;;;4996599;28;20872;-64
2023/09/20 10:19:19;;;;;;;4.75;2.97;;;18.20;99.90;;;;;;4994025;28;20054;-64
2023/09/20 10:22:09;;;;;;;8.73;3.20;;;18.30;99.90;;;;;;4977364;28;20049;-64
2023/09/20 10:24:58;;;;;;;5.90;2.95;;;18.20;99.90;;;;;;4995205;28;20121;-64
2023/09/20 10:27:27;;;;;;;5.28;2.67;;;18.30;99.90;;;;;;4990429;28;20042;-64
2023/09/20 10:30:14;;;;;;;8.57;3.22;;;18.50;99.90;;;;;;4977266;28;20116;-64
2023/09/20 10:32:47;;;;;;;5.32;3.03;;;18.50;99.90;;;;;;4977750;28;20101;-64
2023/09/20 10:35:32;;;;;;;6.35;2.88;;;18.50;99.90;;;;;;4982691;28;20054;-64
2023/09/20 10:38:08;;;;;;;10.63;3.10;;;18.40;99.90;;;;;;4991054;28;20879;-64
2023/09/20 10:40:45;;;;;;;6.93;2.22;;;18.30;99.90;;;;;;4988838;28;20125;-64
2023/09/20 10:43:13;;;;;;;9.95;2.13;;;;;;;;;;4998394;28;20156;-64
2023/09/20 10:45:39;;;;;;;5.32;2.35;;;;;;;;;;4992557;28;20093;-64
2023/09/20 10:48:12;;;;;;;4.97;1.95;;;18.50;99.90;;;;;;5004847;28;20053;-63
2023/09/20 10:50:59;;;;;;;5.75;2.33;;;18.60;99.90;;;;;;4996694;28;20072;-63
2023/09/20 10:53:55;;;;;;;7.22;2.15;;;18.40;99.90;;;;;;4994793;28;20116;-64
2023/09/20 10:56:43;;;;;;;9.30;2.50;;;18.60;99.90;;;;;;4994598;28;20044;-64
2023/09/20 10:59:16;;;;;;;5.45;2.58;;;18.60;99.90;;;;;;4996314;28;20061;-64
2023/09/20 11:01:49;;;;;;;6.00;2.05;;;18.50;99.90;;;;;;4998731;28;20045;-64
2023/09/20 11:04:15;;;;;;;5.72;2.28;;;18.60;99.90;;;;;;4971503;28;20777;-63
2023/09/20 11:06:53;;;;;;;3.28;2.33;;;18.60;99.90;;;;;;4994289;28;20133;-63
2023/09/20 11:09:20;;;;;;;10.82;2.95;;;;;;;;;;4994830;28;20088;-63
2023/09/20 11:11:47;;;;;;;5.07;2.40;;;17.40;99.90;;;;;;4992783;28;20054;-64
2023/09/20 11:14:13;;;;;;;11.35;2.22;;;;;;;;;;4995754;28;20066;-63
2023/09/20 11:16:43;;;;;;;3.00;1.60;;;18.70;99.90;;;;;;4996021;28;20065;-63
2023/09/20 11:19:11;;;;;;;7.05;2.20;;;18.50;99.90;;;;;;4992268;28;20082;-64
2023/09/20 11:21:37;;;;;;;5.03;2.17;;;;;;;;;;4988109;28;20057;-63
2023/09/20 11:24:03;;;;;;;4.30;2.20;;;18.80;99.90;;;;;;4993800;28;20042;-64
2023/09/20 11:26:29;;;;;;;8.00;2.33;;;;;;;;;;4995122;28;20050;-63
2023/09/20 11:28:56;;;;;;;6.93;2.60;;;;;;;;;;4998006;28;20655;-64
2023/09/20 11:31:30;;;;;;;6.20;2.20;;;18.70;99.90;;;;;;4991526;28;20034;-64
2023/09/20 11:33:57;;;;;;;5.90;3.35;;;;;;;;;;5004944;28;20038;-64
2023/09/20 11:36:23;;;;;;;5.18;3.33;;;;;;;;;;5000276;28;20070;-64
2023/09/20 11:38:49;;;;;;;7.95;3.47;;;;;;;;;;4990588;28;20041;-65
2023/09/20 11:41:16;;;;;;;6.10;3.80;;;;;;;;;;4989687;28;20065;-65
2023/09/20 11:43:42;;;;;;;10.30;3.55;;;;;;;;;;4993527;28;20768;-65
2023/09/20 11:46:11;;;;;;;4.55;4.00;;;19.20;99.90;;;;;;5006065;28;20046;-65
2023/09/20 11:48:37;;;;;;;5.85;3.20;;;19.50;99.90;;;;;;5017717;28;20504;-64
2023/09/20 11:51:04;;;;;;;4.93;2.92;;;19.40;99.90;;;;;;5016232;28;20128;-64
2023/09/20 11:53:30;;;;;;;5.38;3.42;;;;;;;;;;4997452;28;20045;-64
2023/09/20 11:55:59;;;;;;;4.72;3.20;;;19.40;99.90;;;;;;4997626;28;20042;-64
2023/09/20 11:58:24;;;;;;;7.10;3.17;;;19.30;99.90;;;;;;5012606;28;20042;-64
2023/09/20 12:00:50;;;;;;;7.13;3.28;;;19.30;99.90;;;;;;4993504;28;20058;-64
2023/09/20 12:03:16;;;;;;;6.15;2.90;;;;;;;;;;4993563;28;20047;-64
2023/09/20 12:05:42;;;;;;;8.80;2.47;;;;;;;;;;4999608;28;20073;-64
2023/09/20 12:08:09;;;;;;;9.00;2.63;;;;;;;;;;4993782;28;20056;-65
2023/09/20 12:10:34;;;;;;;10.00;2.65;;;19.40;99.90;;;;;;4991792;28;20051;-64
2023/09/20 12:13:00;;;;;;;6.28;2.53;;;19.60;99.90;;;;;;5006473;28;20497;-65
2023/09/20 12:15:25;;;;;;;5.78;3.45;;;19.60;99.90;;;;;;5015841;28;20049;-65
2023/09/20 12:17:57;;;;;;;8.40;3.33;;;19.50;99.90;;;;;;4998634;28;20818;-64
2023/09/20 12:20:26;;;;;;;7.22;2.40;;;19.40;99.90;;;;;;5018243;28;20073;-65
2023/09/20 12:22:53;;;;;;;4.82;2.30;;;19.70;99.90;;;;;;4994311;28;20038;-65
2023/09/20 12:25:19;;;;;;;5.57;2.47;;;;;;;;;;5020232;28;20432;-65
2023/09/20 12:27:48;;;;;;;6.30;2.50;;;;;;;;;;4997978;28;20118;-65
2023/09/20 12:30:14;;;;;;;5.95;2.45;;;;;;;;;;5016183;28;20683;-64
2023/09/20 12:32:41;;;;;;;5.28;2.15;;;;;;;;;;4994915;28;20647;-64
2023/09/20 12:35:09;;;;;;;7.45;2.83;;;19.80;99.90;;;;;;5017892;28;20057;-64
2023/09/20 12:37:35;;;;;;;12.73;2.97;;;;;;;;;;5015475;28;20045;-64
2023/09/20 12:40:06;;;;;;;7.35;3.08;;;;;;;;;;5012086;28;20045;-64
2023/09/20 12:42:34;;;;;;;5.13;2.55;;;;;;;;;;5009619;28;20131;-64
2023/09/20 12:45:02;;;;;;;4.78;2.28;;;20.00;99.90;;;;;;5001722;28;20061;-64
2023/09/20 12:47:28;;;;;;;7.03;2.10;;;;;;;;;;5015060;28;20136;-64
2023/09/20 12:49:54;;;;;;;5.47;2.60;;;;;;;;;;5013500;28;20831;-64
2023/09/20 12:52:19;;;;;;;5.47;2.60;;;19.90;99.90;;;;;;5013408;28;20408;-64
2023/09/20 12:54:45;;;;;;;8.65;3.75;;;19.80;99.90;;;;;;5014665;28;20045;-64
2023/09/20 12:57:10;;;;;;;5.93;2.20;;;19.90;99.90;;;;;;4992866;28;20179;-64
2023/09/20 12:59:36;;;;;;;5.20;2.78;;;19.90;99.90;;;;;;4992046;28;20045;-64
2023/09/20 13:02:02;;;;;;;6.65;2.20;;;19.80;99.90;;;;;;4997090;28;20053;-64
2023/09/20 13:04:27;;;;;;;7.97;3.05;;;20.00;99.90;;;;;;4995694;28;20092;-64
2023/09/20 13:06:53;;;;;;;9.00;2.85;;;20.10;99.90;;;;;;4987438;28;20041;-65
2023/09/20 13:09:19;;;;;;;5.70;3.17;;;;;;;;;;4995853;28;20073;-65
2023/09/20 13:11:46;;;;;;;6.95;2.20;;;20.30;99.90;;;;;;5001966;28;20045;-64
2023/09/20 13:14:12;;;;;;;4.88;2.72;;;20.40;99.90;;;;;;5015733;28;20037;-65
2023/09/20 13:16:40;;;;;;;7.32;3.10;;;20.30;99.90;;;;;;5021872;28;20053;-66
2023/09/20 13:19:08;;;;;;;3.67;2.40;;;20.40;99.90;;;;;;5015335;28;20052;-64
2023/09/20 13:21:35;;;;;;;4.90;2.38;;;20.40;99.90;;;;;;4989664;28;20641;-65
2023/09/20 13:24:01;;;;;;;12.18;2.85;;;20.40;99.90;;;;;;5000928;28;20041;-64
2023/09/20 13:26:27;;;;;;;8.45;2.97;;;20.50;99.90;;;;;;4990699;28;20092;-65
2023/09/20 13:28:53;;;;;;;8.15;2.45;;;20.50;99.90;;;;;;5017976;28;20397;-64
2023/09/20 13:31:18;;;;;;;6.75;2.88;;;20.60;99.90;;;;;;5015074;28;20120;-64
2023/09/20 13:33:44;;;;;;;3.88;2.53;;;20.50;99.90;;;;;;5000524;28;20045;-64
2023/09/20 13:36:10;;;;;;;6.25;2.35;;;20.50;99.90;;;;;;5010957;28;20141;-64
2023/09/20 13:38:36;;;;;;;4.68;2.53;;;;;;;;;;4991671;28;20095;-64
2023/09/20 13:41:03;;;;;;;6.25;2.33;;;20.50;99.90;;;;;;4999316;28;20061;-65
2023/09/20 13:43:30;;;;;;;5.90;2.67;;;20.50;99.90;;;;;;4974856;28;20820;-64
2023/09/20 13:45:56;;;;;;;9.10;3.13;;;20.60;99.90;;;;;;4995599;28;20044;-64
2023/09/20 13:48:23;;;;;;;6.88;2.67;;;20.50;99.90;;;;;;4992942;28;20074;-64
2023/09/20 13:50:49;;;;;;;9.05;2.67;;;20.70;99.90;;;;;;4981196;28;20049;-64
2023/09/20 13:53:14;;;;;;;7.18;1.95;;;20.70;99.90;;;;;;4975805;28;20045;-64
2023/09/20 13:55:40;;;;;;;3.60;1.92;;;20.70;99.90;;;;;;4981524;28;20060;-65
2023/09/20 13:58:07;;;;;;;7.32;1.80;;;20.80;99.90;;;;;;4998433;28;20502;-64
2023/09/20 14:00:33;;;;;;;7.30;2.13;;;20.80;99.90;;;;;;4977953;28;20092;-64
2023/09/20 14:03:02;;;;;;;5.13;2.10;;;20.80;99.90;;;;;;4990707;28;20071;-64